Main page
METAR-TAF:

METAR-TAF

Airports :

Kuwait City, Kuwait

Kuwait International Airport

latitude: 29-13N, longitude: 047-59E, elevation: 55 m

Current weather observation

The report was made 14 minutes ago, at 23:00 UTC
Calm wind
Temperature 33°C
Humidity 67%
Pressure 1001 hPa
Visibility: 6000 m
Clear sky

METAR: OKBK 232300Z 00000KT 6000 SKC 33/26 Q1001 NOSIG

Time: 02:14 (23:14 UTC)

Forecast

The report was made 6 hours and 29 minutes ago, at 16:45 UTC
Forecast valid from 23 at 18 UTC to 24 at 24 UTC
Wind 8 kt from the Southeast
Visibility: 6000 m
Temporary
from 23 at 18 UTC to 24 at 05 UTC
Wind 3 kt from variable directions
Visibility: 2000 m
mist

TAF: OKBK 231645Z 2318/2424 13008KT 6000 NSC TEMPO 2318/2405 VRB03KT 2000 BR

Weather observations and forecasts of more than 4000 airports (METAR and TAF reports).

The available stations are represented by yellow and red dots on the map.

Hover mouse over dot to see the name of the station.

Then click to see weather observations and forecasts.

To change the map : click on the green buttons with a black cross to zoom in, on the green button with a dash to zoom out, or on the green arrows for adjacent maps.


METAR-TAF: